sensor_id;sensor_type;location;lat;lon;timestamp;P1;durP1;ratioP1;P2;durP2;ratioP2
11422;SDS011;5768;51.476;7.210;2022-11-20T00:03:10;20.60;;;15.10;;
11422;SDS011;5768;51.476;7.210;2022-11-20T00:08:12;23.90;;;16.10;;
11422;SDS011;5768;51.476;7.210;2022-11-20T00:13:15;18.77;;;14.93;;
11422;SDS011;5768;51.476;7.210;2022-11-20T00:18:18;18.70;;;15.60;;
11422;SDS011;5768;51.476;7.210;2022-11-20T00:23:29;18.00;;;14.87;;
11422;SDS011;5768;51.476;7.210;2022-11-20T00:28:34;16.93;;;14.57;;
11422;SDS011;5768;51.476;7.210;2022-11-20T00:33:36;16.60;;;14.47;;
11422;SDS011;5768;51.476;7.210;2022-11-20T00:38:39;17.17;;;13.53;;
11422;SDS011;5768;51.476;7.210;2022-11-20T00:43:42;16.13;;;13.83;;
11422;SDS011;5768;51.476;7.210;2022-11-20T00:48:45;17.27;;;13.83;;
11422;SDS011;5768;51.476;7.210;2022-11-20T00:53:48;17.20;;;12.97;;
11422;SDS011;5768;51.476;7.210;2022-11-20T00:58:52;16.77;;;14.20;;
11422;SDS011;5768;51.476;7.210;2022-11-20T01:03:55;16.70;;;13.63;;
11422;SDS011;5768;51.476;7.210;2022-11-20T01:09:01;15.30;;;13.57;;
11422;SDS011;5768;51.476;7.210;2022-11-20T01:14:09;15.80;;;13.77;;
11422;SDS011;5768;51.476;7.210;2022-11-20T01:19:14;16.63;;;13.63;;
11422;SDS011;5768;51.476;7.210;2022-11-20T01:24:20;15.07;;;13.30;;
11422;SDS011;5768;51.476;7.210;2022-11-20T01:29:24;16.13;;;13.00;;
11422;SDS011;5768;51.476;7.210;2022-11-20T01:34:26;15.30;;;13.33;;
11422;SDS011;5768;51.476;7.210;2022-11-20T01:39:29;15.47;;;13.50;;
11422;SDS011;5768;51.476;7.210;2022-11-20T01:44:45;17.87;;;13.63;;
11422;SDS011;5768;51.476;7.210;2022-11-20T01:49:54;16.57;;;13.73;;
11422;SDS011;5768;51.476;7.210;2022-11-20T01:55:03;14.60;;;13.03;;
11422;SDS011;5768;51.476;7.210;2022-11-20T02:00:16;15.50;;;13.13;;
11422;SDS011;5768;51.476;7.210;2022-11-20T02:05:22;14.73;;;12.70;;
11422;SDS011;5768;51.476;7.210;2022-11-20T02:10:33;18.33;;;14.20;;
11422;SDS011;5768;51.476;7.210;2022-11-20T02:15:38;16.50;;;14.00;;
11422;SDS011;5768;51.476;7.210;2022-11-20T02:20:41;17.57;;;14.57;;
11422;SDS011;5768;51.476;7.210;2022-11-20T02:25:48;16.90;;;13.70;;
11422;SDS011;5768;51.476;7.210;2022-11-20T02:30:52;16.40;;;14.00;;
11422;SDS011;5768;51.476;7.210;2022-11-20T02:35:55;17.03;;;14.00;;
11422;SDS011;5768;51.476;7.210;2022-11-20T02:40:58;18.67;;;15.10;;
11422;SDS011;5768;51.476;7.210;2022-11-20T02:46:01;20.60;;;15.17;;
11422;SDS011;5768;51.476;7.210;2022-11-20T02:51:03;19.10;;;15.17;;
11422;SDS011;5768;51.476;7.210;2022-11-20T02:56:07;27.43;;;15.13;;
11422;SDS011;5768;51.476;7.210;2022-11-20T03:01:10;17.03;;;14.40;;
11422;SDS011;5768;51.476;7.210;2022-11-20T03:06:12;18.80;;;15.47;;
11422;SDS011;5768;51.476;7.210;2022-11-20T03:11:16;16.17;;;14.00;;
11422;SDS011;5768;51.476;7.210;2022-11-20T03:16:20;17.40;;;14.07;;
11422;SDS011;5768;51.476;7.210;2022-11-20T03:21:24;17.30;;;14.37;;
11422;SDS011;5768;51.476;7.210;2022-11-20T03:26:27;16.77;;;14.23;;
11422;SDS011;5768;51.476;7.210;2022-11-20T03:31:32;17.10;;;13.47;;
11422;SDS011;5768;51.476;7.210;2022-11-20T03:36:36;17.63;;;14.10;;
11422;SDS011;5768;51.476;7.210;2022-11-20T03:41:46;17.53;;;14.20;;
11422;SDS011;5768;51.476;7.210;2022-11-20T03:46:48;16.43;;;14.03;;
11422;SDS011;5768;51.476;7.210;2022-11-20T03:51:51;16.80;;;13.80;;
11422;SDS011;5768;51.476;7.210;2022-11-20T03:56:55;15.27;;;13.63;;
11422;SDS011;5768;51.476;7.210;2022-11-20T04:01:57;17.63;;;14.93;;
11422;SDS011;5768;51.476;7.210;2022-11-20T04:07:00;17.57;;;13.90;;
11422;SDS011;5768;51.476;7.210;2022-11-20T04:12:04;16.63;;;14.57;;
11422;SDS011;5768;51.476;7.210;2022-11-20T04:17:07;19.77;;;17.77;;
11422;SDS011;5768;51.476;7.210;2022-11-20T04:22:09;16.37;;;14.43;;
11422;SDS011;5768;51.476;7.210;2022-11-20T04:27:14;15.90;;;13.97;;
11422;SDS011;5768;51.476;7.210;2022-11-20T04:32:17;15.43;;;13.40;;
11422;SDS011;5768;51.476;7.210;2022-11-20T04:37:19;16.17;;;14.20;;
11422;SDS011;5768;51.476;7.210;2022-11-20T04:42:23;16.00;;;13.20;;
11422;SDS011;5768;51.476;7.210;2022-11-20T04:47:31;15.60;;;13.67;;
11422;SDS011;5768;51.476;7.210;2022-11-20T04:52:33;15.97;;;13.47;;
11422;SDS011;5768;51.476;7.210;2022-11-20T04:57:37;16.10;;;13.50;;
11422;SDS011;5768;51.476;7.210;2022-11-20T05:02:40;16.07;;;13.27;;
11422;SDS011;5768;51.476;7.210;2022-11-20T05:07:42;17.70;;;13.97;;
11422;SDS011;5768;51.476;7.210;2022-11-20T05:12:45;16.03;;;13.40;;
11422;SDS011;5768;51.476;7.210;2022-11-20T05:17:48;14.40;;;13.00;;
11422;SDS011;5768;51.476;7.210;2022-11-20T05:22:50;14.50;;;12.93;;
11422;SDS011;5768;51.476;7.210;2022-11-20T05:27:54;14.97;;;13.40;;
11422;SDS011;5768;51.476;7.210;2022-11-20T05:32:56;15.10;;;13.50;;
11422;SDS011;5768;51.476;7.210;2022-11-20T05:38:01;15.60;;;13.90;;
11422;SDS011;5768;51.476;7.210;2022-11-20T05:43:05;15.67;;;12.67;;
11422;SDS011;5768;51.476;7.210;2022-11-20T05:48:07;14.13;;;12.33;;
11422;SDS011;5768;51.476;7.210;2022-11-20T05:53:09;15.53;;;13.80;;
11422;SDS011;5768;51.476;7.210;2022-11-20T05:58:15;14.37;;;12.80;;
11422;SDS011;5768;51.476;7.210;2022-11-20T06:03:17;14.37;;;12.87;;
11422;SDS011;5768;51.476;7.210;2022-11-20T06:08:20;14.80;;;13.20;;
11422;SDS011;5768;51.476;7.210;2022-11-20T06:13:24;17.30;;;13.17;;
11422;SDS011;5768;51.476;7.210;2022-11-20T06:18:26;16.17;;;13.30;;
11422;SDS011;5768;51.476;7.210;2022-11-20T06:23:30;15.07;;;13.47;;
11422;SDS011;5768;51.476;7.210;2022-11-20T06:28:35;14.87;;;13.17;;
11422;SDS011;5768;51.476;7.210;2022-11-20T06:33:37;15.00;;;13.17;;
11422;SDS011;5768;51.476;7.210;2022-11-20T06:38:40;14.73;;;13.13;;
11422;SDS011;5768;51.476;7.210;2022-11-20T06:43:45;16.03;;;13.93;;
11422;SDS011;5768;51.476;7.210;2022-11-20T06:48:50;16.63;;;13.90;;
11422;SDS011;5768;51.476;7.210;2022-11-20T06:53:53;14.47;;;12.70;;
11422;SDS011;5768;51.476;7.210;2022-11-20T06:58:56;14.87;;;13.23;;
11422;SDS011;5768;51.476;7.210;2022-11-20T07:03:58;18.30;;;16.30;;
11422;SDS011;5768;51.476;7.210;2022-11-20T07:09:01;27.60;;;23.03;;
11422;SDS011;5768;51.476;7.210;2022-11-20T07:14:04;26.57;;;20.13;;
11422;SDS011;5768;51.476;7.210;2022-11-20T07:19:06;18.27;;;15.37;;
11422;SDS011;5768;51.476;7.210;2022-11-20T07:24:08;20.23;;;15.43;;
11422;SDS011;5768;51.476;7.210;2022-11-20T07:29:12;18.87;;;16.00;;
11422;SDS011;5768;51.476;7.210;2022-11-20T07:34:15;20.53;;;16.37;;
11422;SDS011;5768;51.476;7.210;2022-11-20T07:39:17;18.00;;;15.03;;
11422;SDS011;5768;51.476;7.210;2022-11-20T07:44:20;16.67;;;14.40;;
11422;SDS011;5768;51.476;7.210;2022-11-20T07:49:22;15.10;;;13.50;;
11422;SDS011;5768;51.476;7.210;2022-11-20T07:54:24;15.93;;;13.80;;
11422;SDS011;5768;51.476;7.210;2022-11-20T07:59:30;16.07;;;13.80;;
11422;SDS011;5768;51.476;7.210;2022-11-20T08:04:32;15.60;;;14.00;;
11422;SDS011;5768;51.476;7.210;2022-11-20T08:09:36;14.87;;;12.87;;
11422;SDS011;5768;51.476;7.210;2022-11-20T08:14:40;16.13;;;13.50;;
11422;SDS011;5768;51.476;7.210;2022-11-20T08:19:42;16.60;;;14.20;;
11422;SDS011;5768;51.476;7.210;2022-11-20T08:24:44;18.37;;;14.40;;
11422;SDS011;5768;51.476;7.210;2022-11-20T08:29:48;18.80;;;15.07;;
11422;SDS011;5768;51.476;7.210;2022-11-20T08:34:50;16.80;;;14.70;;
11422;SDS011;5768;51.476;7.210;2022-11-20T08:39:53;18.47;;;15.67;;
11422;SDS011;5768;51.476;7.210;2022-11-20T08:44:58;18.03;;;16.07;;
11422;SDS011;5768;51.476;7.210;2022-11-20T08:50:00;20.00;;;15.80;;
11422;SDS011;5768;51.476;7.210;2022-11-20T08:55:07;19.90;;;16.00;;
11422;SDS011;5768;51.476;7.210;2022-11-20T09:00:13;18.50;;;15.13;;
11422;SDS011;5768;51.476;7.210;2022-11-20T09:05:17;18.73;;;15.83;;
11422;SDS011;5768;51.476;7.210;2022-11-20T09:10:19;21.20;;;16.13;;
11422;SDS011;5768;51.476;7.210;2022-11-20T09:15:23;21.33;;;16.37;;
11422;SDS011;5768;51.476;7.210;2022-11-20T09:20:29;24.67;;;17.30;;
11422;SDS011;5768;51.476;7.210;2022-11-20T09:25:31;20.13;;;16.83;;
11422;SDS011;5768;51.476;7.210;2022-11-20T09:30:35;20.30;;;15.70;;
11422;SDS011;5768;51.476;7.210;2022-11-20T09:35:40;18.73;;;14.10;;
11422;SDS011;5768;51.476;7.210;2022-11-20T09:40:45;14.37;;;12.03;;
11422;SDS011;5768;51.476;7.210;2022-11-20T09:46:06;12.00;;;9.57;;
11422;SDS011;5768;51.476;7.210;2022-11-20T09:51:21;10.10;;;8.43;;
11422;SDS011;5768;51.476;7.210;2022-11-20T09:56:37;10.43;;;8.27;;
11422;SDS011;5768;51.476;7.210;2022-11-20T10:01:46;9.40;;;7.70;;
11422;SDS011;5768;51.476;7.210;2022-11-20T10:06:51;9.80;;;8.17;;
11422;SDS011;5768;51.476;7.210;2022-11-20T10:12:14;9.70;;;8.70;;
11422;SDS011;5768;51.476;7.210;2022-11-20T10:17:34;10.90;;;9.60;;
11422;SDS011;5768;51.476;7.210;2022-11-20T10:23:12;9.60;;;8.40;;
11422;SDS011;5768;51.476;7.210;2022-11-20T10:28:43;10.83;;;9.73;;
11422;SDS011;5768;51.476;7.210;2022-11-20T10:34:13;10.27;;;9.27;;
11422;SDS011;5768;51.476;7.210;2022-11-20T10:39:25;9.13;;;8.17;;
11422;SDS011;5768;51.476;7.210;2022-11-20T10:44:36;9.00;;;7.93;;
11422;SDS011;5768;51.476;7.210;2022-11-20T10:50:04;8.33;;;7.43;;
11422;SDS011;5768;51.476;7.210;2022-11-20T10:55:16;8.33;;;7.53;;
11422;SDS011;5768;51.476;7.210;2022-11-20T11:00:31;8.03;;;7.20;;
11422;SDS011;5768;51.476;7.210;2022-11-20T11:05:36;8.07;;;7.27;;
11422;SDS011;5768;51.476;7.210;2022-11-20T11:10:45;7.97;;;7.00;;
11422;SDS011;5768;51.476;7.210;2022-11-20T11:15:54;7.33;;;6.30;;
11422;SDS011;5768;51.476;7.210;2022-11-20T11:21:01;8.30;;;7.50;;
11422;SDS011;5768;51.476;7.210;2022-11-20T11:26:06;8.90;;;6.50;;
11422;SDS011;5768;51.476;7.210;2022-11-20T11:31:22;57.93;;;39.80;;
11422;SDS011;5768;51.476;7.210;2022-11-20T11:36:28;8.00;;;7.13;;
11422;SDS011;5768;51.476;7.210;2022-11-20T11:41:31;8.13;;;7.23;;
11422;SDS011;5768;51.476;7.210;2022-11-20T11:46:38;7.60;;;6.87;;
11422;SDS011;5768;51.476;7.210;2022-11-20T11:52:01;7.67;;;6.87;;
11422;SDS011;5768;51.476;7.210;2022-11-20T11:57:16;7.90;;;6.97;;
11422;SDS011;5768;51.476;7.210;2022-11-20T12:02:31;7.93;;;7.13;;
11422;SDS011;5768;51.476;7.210;2022-11-20T12:07:43;8.00;;;7.23;;
11422;SDS011;5768;51.476;7.210;2022-11-20T12:12:52;8.67;;;7.67;;
11422;SDS011;5768;51.476;7.210;2022-11-20T12:18:17;8.27;;;7.47;;
11422;SDS011;5768;51.476;7.210;2022-11-20T12:23:24;9.30;;;8.30;;
11422;SDS011;5768;51.476;7.210;2022-11-20T12:28:39;9.50;;;8.60;;
11422;SDS011;5768;51.476;7.210;2022-11-20T12:39:50;8.73;;;7.83;;
11422;SDS011;5768;51.476;7.210;2022-11-20T12:45:07;10.30;;;9.00;;
11422;SDS011;5768;51.476;7.210;2022-11-20T12:50:29;9.77;;;8.77;;
11422;SDS011;5768;51.476;7.210;2022-11-20T12:55:49;9.90;;;8.90;;
11422;SDS011;5768;51.476;7.210;2022-11-20T13:01:03;11.60;;;10.40;;
11422;SDS011;5768;51.476;7.210;2022-11-20T13:06:42;10.40;;;9.03;;
11422;SDS011;5768;51.476;7.210;2022-11-20T13:11:48;10.13;;;9.17;;
11422;SDS011;5768;51.476;7.210;2022-11-20T13:17:02;10.40;;;9.30;;
11422;SDS011;5768;51.476;7.210;2022-11-20T13:22:23;9.80;;;8.80;;
11422;SDS011;5768;51.476;7.210;2022-11-20T13:27:28;9.90;;;8.90;;
11422;SDS011;5768;51.476;7.210;2022-11-20T13:32:31;11.30;;;9.07;;
11422;SDS011;5768;51.476;7.210;2022-11-20T13:37:34;10.30;;;9.07;;
11422;SDS011;5768;51.476;7.210;2022-11-20T13:42:43;11.13;;;9.17;;
11422;SDS011;5768;51.476;7.210;2022-11-20T13:47:47;10.67;;;9.63;;
11422;SDS011;5768;51.476;7.210;2022-11-20T13:52:54;10.17;;;9.17;;
11422;SDS011;5768;51.476;7.210;2022-11-20T13:58:26;10.70;;;9.60;;
11422;SDS011;5768;51.476;7.210;2022-11-20T14:03:45;11.03;;;9.93;;
11422;SDS011;5768;51.476;7.210;2022-11-20T14:08:49;11.53;;;10.33;;
11422;SDS011;5768;51.476;7.210;2022-11-20T14:14:00;11.10;;;10.00;;
11422;SDS011;5768;51.476;7.210;2022-11-20T14:24:29;12.03;;;10.50;;
11422;SDS011;5768;51.476;7.210;2022-11-20T14:29:34;11.30;;;9.90;;
11422;SDS011;5768;51.476;7.210;2022-11-20T14:34:41;11.27;;;10.07;;
11422;SDS011;5768;51.476;7.210;2022-11-20T14:39:50;12.17;;;10.70;;
11422;SDS011;5768;51.476;7.210;2022-11-20T14:44:56;12.03;;;10.70;;
11422;SDS011;5768;51.476;7.210;2022-11-20T14:50:01;12.80;;;11.50;;
11422;SDS011;5768;51.476;7.210;2022-11-20T14:55:13;12.37;;;11.17;;
11422;SDS011;5768;51.476;7.210;2022-11-20T15:00:28;13.17;;;11.77;;
11422;SDS011;5768;51.476;7.210;2022-11-20T15:05:44;13.07;;;11.60;;
11422;SDS011;5768;51.476;7.210;2022-11-20T15:10:49;12.73;;;11.43;;
11422;SDS011;5768;51.476;7.210;2022-11-20T15:15:55;12.30;;;11.10;;
11422;SDS011;5768;51.476;7.210;2022-11-20T15:21:00;12.73;;;11.43;;
11422;SDS011;5768;51.476;7.210;2022-11-20T15:26:08;12.03;;;10.83;;
11422;SDS011;5768;51.476;7.210;2022-11-20T15:31:15;12.97;;;11.57;;
11422;SDS011;5768;51.476;7.210;2022-11-20T15:36:21;12.80;;;11.43;;
11422;SDS011;5768;51.476;7.210;2022-11-20T15:41:24;13.93;;;11.03;;
11422;SDS011;5768;51.476;7.210;2022-11-20T15:46:31;12.90;;;11.60;;
11422;SDS011;5768;51.476;7.210;2022-11-20T16:02:35;13.67;;;11.77;;
11422;SDS011;5768;51.476;7.210;2022-11-20T16:07:37;14.20;;;12.10;;
11422;SDS011;5768;51.476;7.210;2022-11-20T16:12:39;16.27;;;13.20;;
11422;SDS011;5768;51.476;7.210;2022-11-20T16:18:00;14.83;;;13.30;;
11422;SDS011;5768;51.476;7.210;2022-11-20T16:23:03;14.37;;;12.87;;
11422;SDS011;5768;51.476;7.210;2022-11-20T16:28:06;15.50;;;12.83;;
11422;SDS011;5768;51.476;7.210;2022-11-20T16:33:10;15.37;;;13.43;;
11422;SDS011;5768;51.476;7.210;2022-11-20T16:38:17;15.60;;;13.00;;
11422;SDS011;5768;51.476;7.210;2022-11-20T16:43:19;16.80;;;14.03;;
11422;SDS011;5768;51.476;7.210;2022-11-20T16:48:22;20.13;;;14.73;;
11422;SDS011;5768;51.476;7.210;2022-11-20T16:53:25;17.00;;;14.23;;
11422;SDS011;5768;51.476;7.210;2022-11-20T16:58:27;17.57;;;14.57;;
11422;SDS011;5768;51.476;7.210;2022-11-20T17:03:30;18.10;;;14.97;;
11422;SDS011;5768;51.476;7.210;2022-11-20T17:08:32;22.03;;;16.57;;
11422;SDS011;5768;51.476;7.210;2022-11-20T17:13:34;20.63;;;16.43;;
11422;SDS011;5768;51.476;7.210;2022-11-20T17:18:38;18.90;;;15.10;;
11422;SDS011;5768;51.476;7.210;2022-11-20T17:23:41;19.07;;;15.20;;
11422;SDS011;5768;51.476;7.210;2022-11-20T17:28:46;20.43;;;15.50;;
11422;SDS011;5768;51.476;7.210;2022-11-20T17:33:56;18.37;;;13.67;;
11422;SDS011;5768;51.476;7.210;2022-11-20T17:38:59;18.33;;;14.47;;
11422;SDS011;5768;51.476;7.210;2022-11-20T17:44:02;18.50;;;14.53;;
11422;SDS011;5768;51.476;7.210;2022-11-20T17:49:05;17.63;;;13.70;;
11422;SDS011;5768;51.476;7.210;2022-11-20T17:54:09;17.07;;;14.00;;
11422;SDS011;5768;51.476;7.210;2022-11-20T17:59:14;22.40;;;18.60;;
11422;SDS011;5768;51.476;7.210;2022-11-20T18:04:19;17.23;;;13.87;;
11422;SDS011;5768;51.476;7.210;2022-11-20T18:09:21;19.80;;;15.30;;
11422;SDS011;5768;51.476;7.210;2022-11-20T18:14:23;19.07;;;15.03;;
11422;SDS011;5768;51.476;7.210;2022-11-20T18:19:37;16.87;;;14.13;;
11422;SDS011;5768;51.476;7.210;2022-11-20T18:24:42;16.77;;;12.90;;
11422;SDS011;5768;51.476;7.210;2022-11-20T18:29:45;14.03;;;10.67;;
11422;SDS011;5768;51.476;7.210;2022-11-20T18:34:55;12.07;;;9.80;;
11422;SDS011;5768;51.476;7.210;2022-11-20T18:39:57;11.30;;;9.33;;
11422;SDS011;5768;51.476;7.210;2022-11-20T18:44:59;7.50;;;6.20;;
11422;SDS011;5768;51.476;7.210;2022-11-20T18:50:06;6.20;;;5.30;;
11422;SDS011;5768;51.476;7.210;2022-11-20T18:55:09;6.37;;;5.43;;
11422;SDS011;5768;51.476;7.210;2022-11-20T19:00:12;4.07;;;3.23;;
11422;SDS011;5768;51.476;7.210;2022-11-20T19:05:16;4.10;;;3.70;;
11422;SDS011;5768;51.476;7.210;2022-11-20T19:10:19;4.30;;;3.90;;
11422;SDS011;5768;51.476;7.210;2022-11-20T19:15:23;3.17;;;2.87;;
11422;SDS011;5768;51.476;7.210;2022-11-20T19:20:27;3.80;;;2.87;;
11422;SDS011;5768;51.476;7.210;2022-11-20T19:25:32;3.10;;;2.80;;
11422;SDS011;5768;51.476;7.210;2022-11-20T19:30:35;3.40;;;3.10;;
11422;SDS011;5768;51.476;7.210;2022-11-20T19:35:39;3.40;;;3.10;;
11422;SDS011;5768;51.476;7.210;2022-11-20T19:40:41;4.27;;;3.47;;
11422;SDS011;5768;51.476;7.210;2022-11-20T19:45:44;4.33;;;3.27;;
11422;SDS011;5768;51.476;7.210;2022-11-20T19:50:48;4.33;;;3.93;;
11422;SDS011;5768;51.476;7.210;2022-11-20T19:55:54;3.33;;;3.00;;
11422;SDS011;5768;51.476;7.210;2022-11-20T20:01:03;4.33;;;3.93;;
11422;SDS011;5768;51.476;7.210;2022-11-20T20:06:09;5.00;;;3.97;;
11422;SDS011;5768;51.476;7.210;2022-11-20T20:11:14;5.43;;;4.10;;
11422;SDS011;5768;51.476;7.210;2022-11-20T20:16:20;7.50;;;4.57;;
11422;SDS011;5768;51.476;7.210;2022-11-20T20:21:27;4.93;;;4.53;;
11422;SDS011;5768;51.476;7.210;2022-11-20T20:26:30;4.50;;;4.10;;
11422;SDS011;5768;51.476;7.210;2022-11-20T20:31:33;6.57;;;5.93;;
11422;SDS011;5768;51.476;7.210;2022-11-20T20:36:37;9.93;;;8.93;;
11422;SDS011;5768;51.476;7.210;2022-11-20T20:41:40;11.30;;;10.20;;
11422;SDS011;5768;51.476;7.210;2022-11-20T20:46:42;12.07;;;10.47;;
11422;SDS011;5768;51.476;7.210;2022-11-20T20:51:45;10.77;;;9.67;;
11422;SDS011;5768;51.476;7.210;2022-11-20T20:56:49;13.87;;;12.47;;
11422;SDS011;5768;51.476;7.210;2022-11-20T21:01:51;11.70;;;10.37;;
11422;SDS011;5768;51.476;7.210;2022-11-20T21:06:55;16.83;;;14.97;;
11422;SDS011;5768;51.476;7.210;2022-11-20T21:11:57;11.00;;;9.77;;
11422;SDS011;5768;51.476;7.210;2022-11-20T21:17:00;15.90;;;11.73;;
11422;SDS011;5768;51.476;7.210;2022-11-20T21:22:04;11.57;;;9.20;;
11422;SDS011;5768;51.476;7.210;2022-11-20T21:27:07;17.80;;;14.47;;
11422;SDS011;5768;51.476;7.210;2022-11-20T21:32:09;16.67;;;14.53;;
11422;SDS011;5768;51.476;7.210;2022-11-20T21:37:12;17.27;;;15.33;;
11422;SDS011;5768;51.476;7.210;2022-11-20T21:42:15;16.77;;;14.23;;
11422;SDS011;5768;51.476;7.210;2022-11-20T21:47:18;15.37;;;12.67;;
11422;SDS011;5768;51.476;7.210;2022-11-20T21:52:21;18.10;;;13.93;;
11422;SDS011;5768;51.476;7.210;2022-11-20T21:57:23;19.07;;;13.40;;
11422;SDS011;5768;51.476;7.210;2022-11-20T22:02:25;21.23;;;17.87;;
11422;SDS011;5768;51.476;7.210;2022-11-20T22:07:29;19.83;;;16.23;;
11422;SDS011;5768;51.476;7.210;2022-11-20T22:12:31;15.93;;;11.20;;
11422;SDS011;5768;51.476;7.210;2022-11-20T22:17:34;22.33;;;16.47;;
11422;SDS011;5768;51.476;7.210;2022-11-20T22:22:55;16.23;;;12.37;;
11422;SDS011;5768;51.476;7.210;2022-11-20T22:27:57;16.73;;;11.43;;
11422;SDS011;5768;51.476;7.210;2022-11-20T22:33:00;14.90;;;11.03;;
11422;SDS011;5768;51.476;7.210;2022-11-20T22:38:03;12.63;;;9.57;;
11422;SDS011;5768;51.476;7.210;2022-11-20T22:43:06;14.90;;;11.20;;
11422;SDS011;5768;51.476;7.210;2022-11-20T22:48:08;16.53;;;13.77;;
11422;SDS011;5768;51.476;7.210;2022-11-20T22:53:12;14.60;;;12.57;;
11422;SDS011;5768;51.476;7.210;2022-11-20T22:58:14;6.97;;;5.53;;
11422;SDS011;5768;51.476;7.210;2022-11-20T23:03:17;13.87;;;10.50;;
11422;SDS011;5768;51.476;7.210;2022-11-20T23:08:20;13.00;;;11.37;;
11422;SDS011;5768;51.476;7.210;2022-11-20T23:13:22;12.13;;;9.73;;
11422;SDS011;5768;51.476;7.210;2022-11-20T23:18:28;15.70;;;12.10;;
11422;SDS011;5768;51.476;7.210;2022-11-20T23:23:32;12.93;;;11.40;;
11422;SDS011;5768;51.476;7.210;2022-11-20T23:28:34;14.97;;;12.43;;
11422;SDS011;5768;51.476;7.210;2022-11-20T23:33:38;14.37;;;12.37;;
11422;SDS011;5768;51.476;7.210;2022-11-20T23:38:43;14.40;;;12.10;;
11422;SDS011;5768;51.476;7.210;2022-11-20T23:43:46;14.63;;;13.13;;
11422;SDS011;5768;51.476;7.210;2022-11-20T23:48:48;13.07;;;11.60;;
11422;SDS011;5768;51.476;7.210;2022-11-20T23:53:52;14.23;;;12.20;;
11422;SDS011;5768;51.476;7.210;2022-11-20T23:58:54;13.33;;;11.67;;
